^^
Datos históricos de la estación: Murcia-Puente Tocinos
Diario Informe para Octubre 28, 2019 Unidades:  Métrico    Ingés   Ambas
Diario Semanal Mensual Anual
  Máxima: Mínima: Promedio:
Temperatura: 22.2 °C 13.2 °C 17.4 °C
Punto de rocio: 15.8 °C 12 °C 14.4 °C
Humedad: 93% 66.9% 84%
Velocidad viento: 9.5km/h 0km/h 4.4km/h
Racha viento: 16.7km/h - -
Viento- - SSO
Presión: 1019.3 hPa 1014.9 hPa -
Precipitación: 0.3 mm    
 
 
Tabla de datos para Octubre 28, 2019
Hora Temperatura Punto de rocio Presión Viento Velocidad viento Racha viento Humedad Intensidad lluvia(por hora) Nubes
00:04 16 °C 14.6 °C 1019.3 hPa Calm     91% 0.0 mm
00:09 16.1 °C 14.5 °C 1019.3 hPa Calm     90.6% 0.0 mm
00:14 16 °C 14.3 °C 1019.2 hPa Calm   3.2 km/h 90% 0.0 mm
00:19 16 °C 14.3 °C 1019.2 hPa Calm   5 km/h 90% 0.0 mm
00:24 15.9 °C 14.3 °C 1019.2 hPa Sur 1.7 km/h 7.4 km/h 90% 0.0 mm
00:29 15.9 °C 14.3 °C 1019.1 hPa Sur 2.2 km/h 8 km/h 90% 0.0 mm
00:34 15.9 °C 14.3 °C 1019.1 hPa SSE 3.4 km/h 8 km/h 90% 0.0 mm
00:39 15.9 °C 14.3 °C 1019.1 hPa Sur 3.9 km/h 8 km/h 90% 0.0 mm
00:44 15.9 °C 14.4 °C 1019.0 hPa SSO 4.5 km/h 8 km/h 90.7% 0.0 mm
00:49 15.9 °C 14.4 °C 1019.0 hPa SSO 4.7 km/h 4.8 km/h 91% 0.0 mm
00:54 15.9 °C 14.4 °C 1019.0 hPa SSO 2.8 km/h 4.7 km/h 91% 0.0 mm
00:59 15.9 °C 14.4 °C 1018.9 hPa SSO 2.2 km/h 4.8 km/h 91% 0.0 mm
01:04 15.9 °C 14.4 °C 1018.9 hPa SSO 2.2 km/h 4.8 km/h 91% 0.0 mm
01:09 15.8 °C 14.2 °C 1018.9 hPa SSO 2.2 km/h   90% 0.0 mm
01:14 15.8 °C 14.2 °C 1018.8 hPa SSO 0.6 km/h   90.6% 0.0 mm
01:19 15.7 °C 14 °C 1018.8 hPa Calm   4.7 km/h 90% 0.0 mm
01:24 15.5 °C 13.9 °C 1018.8 hPa Calm   5.6 km/h 90% 0.0 mm
01:29 15.3 °C 13.7 °C 1018.7 hPa Calm   4.8 km/h 90% 0.0 mm
01:34 15.2 °C 13.7 °C 1018.7 hPa SO 1.6 km/h 3.7 km/h 90.7% 0.0 mm
01:39 15.2 °C 13.7 °C 1018.8 hPa SO 2.2 km/h 3.2 km/h 91% 0.0 mm
01:44 15.1 °C 13.7 °C 1018.8 hPa SO 0.6 km/h 4.7 km/h 91% 0.0 mm
01:49 15.1 °C 13.7 °C 1018.8 hPa Calm   4.8 km/h 91.1% 0.0 mm
01:54 15.1 °C 13.8 °C 1018.8 hPa Calm   3.7 km/h 92% 0.0 mm
01:59 15 °C 13.8 °C 1018.7 hPa Calm   3.7 km/h 92% 0.0 mm
02:04 15.1 °C 13.8 °C 1018.7 hPa Calm   3.9 km/h 92% 0.0 mm
02:09 15.1 °C 13.8 °C 1018.7 hPa Calm   5.6 km/h 92% 0.0 mm
02:14 15.2 °C 13.9 °C 1018.6 hPa ESE 2.2 km/h 7.4 km/h 92% 0.0 mm
02:19 15.2 °C 13.9 °C 1018.6 hPa ESE 2.9 km/h 8 km/h 92% 0.0 mm
02:24 15.2 °C 13.9 °C 1018.6 hPa SE 3.1 km/h 7.4 km/h 92.1% 0.0 mm
02:29 15.2 °C 13.9 °C 1018.5 hPa SSE 3.2 km/h 8 km/h 92% 0.0 mm
02:34 15.1 °C 13.8 °C 1018.5 hPa SSO 3.7 km/h 8 km/h 92% 0.0 mm
02:39 15.1 °C 13.8 °C 1018.5 hPa SSE 3.9 km/h 6.4 km/h 92% 0.0 mm
02:44 15.1 °C 13.8 °C 1018.4 hPa Sur 3.9 km/h 7.4 km/h 92.1% 0.0 mm
02:49 15.1 °C 14 °C 1018.4 hPa Sur 3.9 km/h 8 km/h 92.9% 0.0 mm
02:54 15.1 °C 14 °C 1018.4 hPa Sur 4.5 km/h 8 km/h 93% 0.0 mm
02:59 15.1 °C 14 °C 1018.2 hPa Sur 4.7 km/h 8 km/h 93% 0.0 mm
03:04 15.1 °C 14 °C 1018.2 hPa Sur 4.7 km/h 6.4 km/h 92.9% 0.0 mm
03:09 15.1 °C 13.8 °C 1018.2 hPa Sur 4.7 km/h 6.4 km/h 92% 0.0 mm
03:14 15.1 °C 13.8 °C 1018.0 hPa Sur 3.6 km/h 6.4 km/h 92% 0.0 mm
03:19 15 °C 13.7 °C 1018.0 hPa Sur 3.2 km/h 5.8 km/h 92% 0.0 mm
03:24 14.8 °C 13.4 °C 1018.0 hPa Sur 3 km/h 6.4 km/h 91.2% 0.0 mm
03:29 14.7 °C 13.4 °C 1017.9 hPa Sur 2.9 km/h 6.4 km/h 91.6% 0.0 mm
03:34 14.7 °C 13.4 °C 1017.9 hPa Sur 3.1 km/h 4.8 km/h 92% 0.0 mm
03:39 14.7 °C 13.4 °C 1017.9 hPa Sur 3.2 km/h 3.9 km/h 92% 0.0 mm
03:44 14.6 °C 13.3 °C 1017.7 hPa Sur 0.9 km/h 3.9 km/h 92% 0.0 mm
03:49 14.6 °C 13.3 °C 1017.7 hPa Calm   3.9 km/h 92% 0.0 mm
03:54 14.6 °C 13.3 °C 1017.9 hPa SE 1.6 km/h 5.6 km/h 92% 0.0 mm
03:59 14.6 °C 13.3 °C 1017.9 hPa SE 2.2 km/h 5.6 km/h 92% 0.0 mm
04:04 14.5 °C 13.3 °C 1017.9 hPa SSE 3 km/h 9.3 km/h 92% 0.0 mm
04:09 14.5 °C 13.2 °C 1017.9 hPa Sur 3.2 km/h 9.7 km/h 92% 0.0 mm
04:14 14.5 °C 13.2 °C 1017.9 hPa SSO 5.1 km/h 9.7 km/h 92% 0.0 mm
04:19 14.4 °C 13.1 °C 1017.9 hPa Sur 5.8 km/h 8 km/h 92% 0.0 mm
04:24 14.4 °C 13.1 °C 1017.9 hPa SE 4.9 km/h 8 km/h 92% 0.0 mm
04:29 14.3 °C 13.1 °C 1017.8 hPa SE 4.7 km/h 8.4 km/h 92% 0.0 mm
04:34 14.2 °C 13 °C 1017.8 hPa SSE 4.9 km/h 9.3 km/h 92% 0.0 mm
04:39 14.2 °C 12.9 °C 1017.8 hPa SSE 5 km/h 10 km/h 92% 0.0 mm
04:44 14.1 °C 12.9 °C 1017.7 hPa SSO 6 km/h 11.9 km/h 92.2% 0.0 mm
04:49 14.2 °C 13.1 °C 1017.7 hPa SSO 6.5 km/h 11.3 km/h 93% 0.0 mm
04:54 14.2 °C 13.1 °C 1017.7 hPa SSO 6.8 km/h 11.9 km/h 93% 0.0 mm
04:59 14.3 °C 13.2 °C 1017.7 hPa SSO 6.9 km/h 11.3 km/h 93% 0.0 mm
05:04 14.3 °C 13.2 °C 1017.7 hPa SSO 6.9 km/h 11.3 km/h 93% 0.0 mm
05:09 14.3 °C 13.2 °C 1017.7 hPa SSO 6.9 km/h 9.7 km/h 93% 0.0 mm
05:14 14.4 °C 13.3 °C 1017.6 hPa SSO 5.5 km/h 9.3 km/h 93% 0.0 mm
05:19 14.4 °C 13.2 °C 1017.6 hPa SSO 5 km/h 9.7 km/h 92.7% 0.0 mm
05:24 14.4 °C 13.1 °C 1017.7 hPa SSO 5.6 km/h 9.7 km/h 92% 0.0 mm
05:29 14.4 °C 13.1 °C 1017.7 hPa SSO 5.8 km/h 8 km/h 92% 0.0 mm
05:34 14.3 °C 13 °C 1017.7 hPa SSO 4.9 km/h 8 km/h 92% 0.0 mm
05:39 14.3 °C 13 °C 1017.7 hPa SSO 4.7 km/h 8 km/h 92% 0.0 mm
05:44 14.3 °C 13.1 °C 1017.6 hPa SO 4.7 km/h 9.5 km/h 92% 0.0 mm
05:49 14.4 °C 13.1 °C 1017.6 hPa SO 4.7 km/h 9.7 km/h 92% 0.0 mm
05:54 14.4 °C 13.1 °C 1017.6 hPa SO 5.5 km/h 9.7 km/h 92% 0.0 mm
05:59 14.3 °C 13 °C 1017.6 hPa SO 5.8 km/h 9.3 km/h 92% 0.0 mm
06:04 14.3 °C 13 °C 1017.6 hPa SO 4.3 km/h 9.7 km/h 92% 0.0 mm
06:09 14.3 °C 13 °C 1017.6 hPa SSO 3.9 km/h 8 km/h 92% 0.0 mm
06:14 14.3 °C 13 °C 1017.5 hPa Sur 4.5 km/h 8 km/h 92% 0.0 mm
06:19 14.3 °C 13 °C 1017.5 hPa Sur 4.7 km/h 8.4 km/h 92% 0.0 mm
06:24 14.3 °C 13 °C 1017.5 hPa SSE 4.9 km/h 8 km/h 91.8% 0.0 mm
06:29 14 °C 12.6 °C 1017.4 hPa SE 5 km/h 10.3 km/h 91% 0.3 mm
06:34 13.7 °C 12.3 °C 1017.4 hPa SSE 6 km/h 11.3 km/h 91% 0.3 mm
06:39 13.6 °C 12.2 °C 1017.7 hPa SSE 6.5 km/h 11.3 km/h 91.4% 0.3 mm
06:44 13.4 °C 12.1 °C 1017.7 hPa SSE 6.8 km/h 9.7 km/h 92% 0.3 mm
06:49 13.4 °C 12.1 °C 1017.7 hPa SSE 6.9 km/h 11.1 km/h 92% 0.3 mm
06:54 13.3 °C 12.1 °C 1017.7 hPa SSE 6.9 km/h 11.3 km/h 92.3% 0.3 mm
06:59 13.3 °C 12 °C 1017.6 hPa SSE 6.9 km/h 13.7 km/h 92.3% 0.3 mm
07:04 13.2 °C 12.1 °C 1017.6 hPa SSE 6.9 km/h 14.5 km/h 93% 0.3 mm
07:09 13.3 °C 12.2 °C 1017.6 hPa Sur 6.9 km/h 9.7 km/h 93% 0.3 mm
07:14 13.3 °C 12.2 °C 1017.6 hPa SSE 6.6 km/h 9.5 km/h 93% 0.3 mm
07:19 13.3 °C 12.2 °C 1017.6 hPa SSE 6.5 km/h 9.7 km/h 93% 0.3 mm
07:24 13.4 °C 12.3 °C 1017.6 hPa SSE 6 km/h 10 km/h 93% 0.3 mm
07:29 13.4 °C 12.3 °C 1017.6 hPa Sur 5.8 km/h 9.7 km/h 93% 0.3 mm
07:34 13.4 °C 12.3 °C 1017.6 hPa SSO 5.2 km/h 9.7 km/h 93% 0.0 mm
07:39 13.5 °C 12.4 °C 1017.7 hPa SSO 5 km/h 8 km/h 93% 0.0 mm
07:44 13.6 °C 12.5 °C 1017.7 hPa SSO 4.2 km/h 8 km/h 93% 0.0 mm
07:49 13.6 °C 12.5 °C 1017.7 hPa SSO 3.9 km/h 6.4 km/h 93% 0.0 mm
07:54 13.7 °C 12.6 °C 1017.7 hPa SSO 3.1 km/h 6.4 km/h 93% 0.0 mm
07:59 13.7 °C 12.6 °C 1017.7 hPa SSO 2.9 km/h 4.8 km/h 93% 0.0 mm
08:04 13.8 °C 12.7 °C 1017.7 hPa SSO 0.7 km/h 3.9 km/h 93% 0.0 mm
08:09 13.8 °C 12.7 °C 1017.8 hPa Calm   3.7 km/h 93% 0.0 mm
08:14 13.8 °C 12.6 °C 1017.8 hPa Sur 1.7 km/h 3.2 km/h 92.6% 0.0 mm
08:19 13.9 °C 12.8 °C 1017.8 hPa Sur 2.2 km/h 5.8 km/h 93% 0.0 mm
08:24 13.9 °C 12.7 °C 1017.9 hPa Oeste 0.6 km/h 8.4 km/h 92.5% 0.0 mm
08:29 14.1 °C 12.9 °C 1017.9 hPa Calm   9.3 km/h 92.6% 0.0 mm
08:34 14.3 °C 13.2 °C 1017.9 hPa OSO 3.8 km/h 13.7 km/h 93% 0.0 mm
08:39 14.5 °C 13.3 °C 1018.0 hPa OSO 5 km/h 14.5 km/h 92.6% 0.0 mm
08:44 14.7 °C 13.5 °C 1018.0 hPa SSO 6.1 km/h 9.7 km/h 93% 0.0 mm
08:49 14.8 °C 13.7 °C 1018.0 hPa SSE 6.5 km/h 11.1 km/h 93% 0.0 mm
08:54 14.9 °C 13.7 °C 1018.1 hPa Sur 6.5 km/h 11.3 km/h 92.2% 0.0 mm
08:59 15.1 °C 13.8 °C 1018.1 hPa Sur 6.5 km/h 11.3 km/h 92% 0.0 mm
09:04 15.2 °C 13.9 °C 1018.1 hPa Sur 6.8 km/h 13 km/h 92% 0.0 mm
09:09 15.2 °C 13.9 °C 1018.3 hPa SSO 6.9 km/h 13 km/h 91.8% 0.0 mm
09:14 15.2 °C 13.9 °C 1018.3 hPa SSO 8 km/h 12.9 km/h 92% 0.0 mm
09:19 15.3 °C 13.9 °C 1018.3 hPa Sur 8.4 km/h 11.1 km/h 91.4% 0.0 mm
09:24 15.3 °C 13.9 °C 1018.3 hPa Sur 7.3 km/h 11.9 km/h 91% 0.0 mm
09:29 15.3 °C 13.8 °C 1018.3 hPa SSE 6.9 km/h 13 km/h 91% 0.0 mm
09:34 15.3 °C 14 °C 1018.3 hPa Sur 8 km/h 13.7 km/h 91.7% 0.0 mm
09:39 15.3 °C 14 °C 1018.6 hPa Sur 8.4 km/h 14.5 km/h 92% 0.0 mm
09:44 15.4 °C 14.1 °C 1018.6 hPa SSO 9.2 km/h 12.9 km/h 92% 0.0 mm
09:49 15.4 °C 14.2 °C 1018.6 hPa Sur 9.5 km/h 11.3 km/h 92% 0.0 mm
09:54 15.6 °C 14.1 °C 1018.7 hPa SSO 8.1 km/h 11.9 km/h 91.2% 0.0 mm
09:59 15.7 °C 14.2 °C 1018.7 hPa SSO 7.6 km/h 11.3 km/h 91% 0.0 mm
10:04 15.8 °C 14.4 °C 1018.7 hPa Sur 7.1 km/h 10 km/h 91% 0.0 mm
10:09 16 °C 14.4 °C 1018.7 hPa SSE 6.9 km/h 11.1 km/h 90.3% 0.0 mm
10:14 16.2 °C 14.4 °C 1018.4 hPa SSE 6.6 km/h 11.3 km/h 88.9% 0.0 mm
10:19 16.4 °C 14.4 °C 1018.4 hPa SSO 6.5 km/h 11.3 km/h 88.1% 0.0 mm
10:24 16.6 °C 14.4 °C 1018.4 hPa SO 6 km/h 11.1 km/h 86.7% 0.0 mm
10:29 16.7 °C 14.2 °C 1018.3 hPa OSO 5.8 km/h 11.3 km/h 85.1% 0.0 mm
10:34 16.8 °C 14.3 °C 1018.3 hPa Oeste 6.3 km/h 9.7 km/h 85% 0.0 mm
10:39 17 °C 14.3 °C 1018.3 hPa SO 6.5 km/h 9.7 km/h 84.5% 0.0 mm
10:44 17.2 °C 14.4 °C 1018.3 hPa OSO 4.5 km/h 11.1 km/h 83.6% 0.0 mm
10:49 17.3 °C 14.4 °C 1018.3 hPa Oeste 3.9 km/h 11.3 km/h 83% 0.0 mm
10:54 17.4 °C 14.5 °C 1018.3 hPa OSO 3.9 km/h 8 km/h 83% 0.0 mm
10:59 17.7 °C 14.6 °C 1018.3 hPa SSE 3.9 km/h 8.4 km/h 82.1% 0.0 mm
11:04 17.9 °C 14.6 °C 1018.3 hPa Sur 3.9 km/h 8 km/h 81.2% 0.0 mm
11:09 18.1 °C 14.7 °C 1018.3 hPa SE 3.9 km/h 8 km/h 81% 0.0 mm
11:14 18.3 °C 14.8 °C 1018.0 hPa SE 3.4 km/h 8 km/h 80.4% 0.0 mm
11:19 18.4 °C 14.7 °C 1018.0 hPa SSE 3.2 km/h 8 km/h 79.3% 0.0 mm
11:24 18.4 °C 14.9 °C 1018.0 hPa SO 4.3 km/h 8 km/h 79.9% 0.0 mm
11:29 18.4 °C 14.9 °C 1017.9 hPa ONO 4.7 km/h 8 km/h 80% 0.0 mm
11:34 18.5 °C 15 °C 1017.9 hPa Oeste 3.3 km/h 8 km/h 80% 0.0 mm
11:39 18.7 °C 15 °C 1018.0 hPa SO 2.9 km/h 8 km/h 79.2% 0.0 mm
11:44 18.8 °C 15.1 °C 1018.0 hPa SSO 3.1 km/h 8 km/h 79.5% 0.0 mm
11:49 19 °C 15.1 °C 1018.0 hPa SSO 3.2 km/h 7.4 km/h 78.4% 0.0 mm
11:54 19.1 °C 15 °C 1018.0 hPa Oeste 3 km/h 8 km/h 77.1% 0.0 mm
11:59 19.2 °C 15 °C 1017.9 hPa Oeste 2.9 km/h 8.4 km/h 77% 0.0 mm
12:04 19.2 °C 15 °C 1017.9 hPa Oeste 3.7 km/h 11.1 km/h 76.4% 0.0 mm
12:09 19.2 °C 14.9 °C 1017.9 hPa Oeste 3.9 km/h 11.3 km/h 76% 0.0 mm
12:14 19.3 °C 14.9 °C 1017.8 hPa Oeste 5.3 km/h 11.1 km/h 75.5% 0.0 mm
12:19 19.3 °C 14.9 °C 1017.8 hPa Oeste 5.8 km/h 11.3 km/h 76% 0.0 mm
12:24 19.4 °C 15.1 °C 1017.8 hPa ONO 4.9 km/h 8.4 km/h 75.8% 0.0 mm
12:29 19.6 °C 14.9 °C 1017.6 hPa SSO 4.7 km/h 9.3 km/h 74.4% 0.0 mm
12:34 19.6 °C 14.9 °C 1017.6 hPa SSO 4.7 km/h 9.7 km/h 74% 0.0 mm
12:39 19.7 °C 14.9 °C 1017.6 hPa SSO 4.7 km/h 9.7 km/h 74% 0.0 mm
12:44 19.7 °C 15 °C 1017.4 hPa SO 4.9 km/h 9.3 km/h 74% 0.0 mm
12:49 19.8 °C 14.9 °C 1017.4 hPa SO 5 km/h 9.7 km/h 73.5% 0.0 mm
12:54 19.8 °C 14.9 °C 1017.4 hPa OSO 4.7 km/h 9.7 km/h 73.3% 0.0 mm
12:59 19.9 °C 14.9 °C 1017.2 hPa OSO 4.7 km/h 9.7 km/h 73% 0.0 mm
13:04 20 °C 15 °C 1017.2 hPa SSO 4.7 km/h 8.7 km/h 73% 0.0 mm
13:09 20.2 °C 15 °C 1017.2 hPa OSO 4.7 km/h 10 km/h 72.2% 0.0 mm
13:14 20.2 °C 15 °C 1017.1 hPa ONO 4.9 km/h 10.3 km/h 72% 0.0 mm
13:19 20.3 °C 15.1 °C 1017.1 hPa OSO 5 km/h 11.1 km/h 72% 0.0 mm
13:24 20.3 °C 14.9 °C 1017.1 hPa OSO 5 km/h 11.3 km/h 71% 0.0 mm
13:29 20.3 °C 14.9 °C 1016.9 hPa OSO 5 km/h 11.9 km/h 70.9% 0.0 mm
13:34 20.4 °C 14.8 °C 1016.9 hPa SO 5.6 km/h 11.3 km/h 70.3% 0.0 mm
13:39 20.4 °C 14.9 °C 1016.9 hPa SSO 5.8 km/h 11.3 km/h 70.6% 0.0 mm
13:44 20.5 °C 14.9 °C 1016.7 hPa SSO 6.6 km/h 14.8 km/h 70.3% 0.0 mm
13:49 20.4 °C 14.9 °C 1016.7 hPa SSO 6.9 km/h 14.5 km/h 70.8% 0.0 mm
13:54 20.5 °C 15 °C 1016.7 hPa SSO 6.9 km/h 10 km/h 71% 0.0 mm
13:59 20.6 °C 15.1 °C 1016.6 hPa SO 6.9 km/h 13 km/h 71% 0.0 mm
14:04 20.6 °C 15.1 °C 1016.6 hPa SO 6.9 km/h 16.1 km/h 70.5% 0.0 mm
14:09 20.5 °C 14.8 °C 1016.6 hPa Sur 6.9 km/h 16.7 km/h 69.9% 0.0 mm
14:14 20.5 °C 14.9 °C 1016.4 hPa SSO 8.3 km/h 13.7 km/h 70% 0.0 mm
14:19 20.6 °C 14.9 °C 1016.4 hPa SSO 8.7 km/h 14.5 km/h 70% 0.0 mm
14:24 20.6 °C 14.9 °C 1016.4 hPa SSO 8.7 km/h 13 km/h 69.9% 0.0 mm
14:29 20.7 °C 15 °C 1016.1 hPa SSO 8.7 km/h 12.9 km/h 69.7% 0.0 mm
14:34 20.8 °C 15 °C 1016.1 hPa SSO 6.5 km/h 9.7 km/h 69.6% 0.0 mm
14:39 20.8 °C 15 °C 1016.1 hPa Sur 5.8 km/h 10 km/h 69.6% 0.0 mm
14:44 20.8 °C 15.1 °C 1015.9 hPa SSO 5.8 km/h 9.7 km/h 69.9% 0.0 mm
14:49 20.9 °C 15.1 °C 1015.9 hPa Sur 5.8 km/h 11.1 km/h 69.6% 0.0 mm
14:54 20.9 °C 15 °C 1015.9 hPa SE 5.2 km/h 11.3 km/h 69% 0.0 mm
14:59 20.9 °C 15 °C 1015.6 hPa SO 5 km/h 8.4 km/h 69% 0.0 mm
15:04 20.9 °C 15 °C 1015.6 hPa SO 4.7 km/h 8.4 km/h 69% 0.0 mm
15:09 21 °C 15.1 °C 1015.6 hPa OSO 4.7 km/h 8.4 km/h 69% 0.0 mm
15:14 21 °C 15.1 °C 1015.5 hPa SSE 4.7 km/h 8 km/h 69% 0.0 mm
15:19 21 °C 15.1 °C 1015.5 hPa SSE 4.7 km/h 8.4 km/h 69% 0.0 mm
15:24 21 °C 15.1 °C 1015.5 hPa Oeste 4.1 km/h 9.3 km/h 69% 0.0 mm
15:29 21 °C 15.1 °C 1015.5 hPa NO 3.9 km/h 9.7 km/h 69% 0.0 mm
15:34 21.2 °C 15.2 °C 1015.5 hPa OSO 4.7 km/h 9.5 km/h 69% 0.0 mm
15:39 21.3 °C 15.4 °C 1015.5 hPa Oeste 5 km/h 10 km/h 69% 0.0 mm
15:44 21.3 °C 15.4 °C 1015.5 hPa Oeste 5 km/h 9.7 km/h 69% 0.0 mm
15:49 21.4 °C 15.3 °C 1015.5 hPa Oeste 5 km/h 11.1 km/h 68% 0.0 mm
15:54 21.4 °C 15.2 °C 1015.5 hPa Oeste 5 km/h 11.3 km/h 68% 0.0 mm
15:59 21.4 °C 15.2 °C 1015.5 hPa ONO 5 km/h 9.7 km/h 68% 0.0 mm
16:04 21.4 °C 15.4 °C 1015.5 hPa ONO 4.7 km/h 9.7 km/h 68.7% 0.0 mm
16:09 21.4 °C 15.5 °C 1015.5 hPa ONO 4.7 km/h 7.6 km/h 68.8% 0.0 mm
16:14 21.5 °C 15.5 °C 1015.5 hPa NNO 3.6 km/h 8 km/h 68.9% 0.0 mm
16:19 21.5 °C 15.5 °C 1015.5 hPa NO 3.2 km/h 8 km/h 69% 0.0 mm
16:24 21.6 °C 15.7 °C 1015.5 hPa NO 2.5 km/h 4.7 km/h 68.9% 0.0 mm
16:29 21.8 °C 15.6 °C 1015.5 hPa SE 2.2 km/h 7.4 km/h 68% 0.0 mm
16:34 22 °C 15.6 °C 1015.5 hPa SSO 2.2 km/h 8 km/h 67.1% 0.0 mm
16:39 22.1 °C 15.6 °C 1015.5 hPa ESE 2.2 km/h 9.3 km/h 66.9% 0.0 mm
16:44 21.9 °C 15.5 °C 1015.4 hPa ESE 4 km/h 9.7 km/h 67.1% 0.0 mm
16:49 21.8 °C 15.6 °C 1015.4 hPa ESE 4.7 km/h 8 km/h 68% 0.0 mm
16:54 21.9 °C 15.6 °C 1015.4 hPa SSE 3.6 km/h 7.6 km/h 67.7% 0.0 mm
16:59 21.9 °C 15.7 °C 1015.3 hPa SSE 3.2 km/h 8 km/h 67.9% 0.0 mm
17:04 22 °C 15.7 °C 1015.3 hPa SO 3.7 km/h 8 km/h 67.4% 0.0 mm
17:09 22.1 °C 15.7 °C 1015.3 hPa SSO 3.9 km/h 8 km/h 67.2% 0.0 mm
17:14 22.1 °C 15.7 °C 1015.2 hPa SSE 3.4 km/h 8 km/h 67.3% 0.0 mm
17:19 22.1 °C 15.8 °C 1015.2 hPa SSE 3.2 km/h 5.6 km/h 67.7% 0.0 mm
17:24 22.2 °C 15.8 °C 1015.2 hPa SSE 0.8 km/h 7.6 km/h 67% 0.0 mm
17:29 22.2 °C 15.8 °C 1014.9 hPa Calm   8 km/h 67.1% 0.0 mm
17:34 22.1 °C 15.8 °C 1014.9 hPa SSE 2.2 km/h 7.4 km/h 67.4% 0.0 mm
17:39 21.9 °C 15.8 °C 1014.9 hPa SSE 2.9 km/h 8 km/h 68% 0.0 mm
17:44 21.9 °C 15.7 °C 1014.9 hPa ESE 2.4 km/h 7.4 km/h 68% 0.0 mm
17:49 21.7 °C 15.7 °C 1014.9 hPa ESE 2.2 km/h 8 km/h 68.6% 0.0 mm
17:54 21.5 °C 15.8 °C 1015.0 hPa ESE 4.1 km/h 8 km/h 69.8% 0.0 mm
17:59 21.3 °C 15.7 °C 1015.0 hPa ESE 4.7 km/h 8.4 km/h 70.7% 0.0 mm
18:04 21 °C 15.6 °C 1015.0 hPa ESE 4.7 km/h 10 km/h 71.3% 0.0 mm
18:09 20.7 °C 15.5 °C 1015.1 hPa ESE 4.7 km/h 9.7 km/h 72.3% 0.0 mm
18:14 20.4 °C 15.5 °C 1015.1 hPa ESE 6 km/h 9.7 km/h 73.2% 0.0 mm
18:19 20.3 °C 15.5 °C 1015.1 hPa ESE 6.5 km/h 11.1 km/h 74% 0.0 mm
18:24 20.1 °C 15.5 °C 1015.1 hPa ESE 6.8 km/h 11.3 km/h 75% 0.0 mm
18:29 19.9 °C 15.5 °C 1015.1 hPa ESE 6.9 km/h 9.7 km/h 75.8% 0.0 mm
18:34 19.8 °C 15.5 °C 1015.1 hPa ESE 5.5 km/h 8.4 km/h 76% 0.0 mm
18:39 19.7 °C 15.5 °C 1015.1 hPa ESE 5 km/h 8.4 km/h 76.5% 0.0 mm
18:44 19.6 °C 15.5 °C 1015.1 hPa ESE 5 km/h 8 km/h 77% 0.0 mm
18:49 19.5 °C 15.4 °C 1015.1 hPa ESE 5 km/h 8 km/h 77.2% 0.0 mm
18:54 19.4 °C 15.4 °C 1015.1 hPa ESE 4.7 km/h 8.4 km/h 78% 0.0 mm
18:59 19.3 °C 15.4 °C 1015.1 hPa ESE 4.7 km/h 9.5 km/h 78% 0.0 mm
19:04 19.2 °C 15.4 °C 1015.1 hPa ESE 4.9 km/h 9.7 km/h 79% 0.0 mm
19:09 19.2 °C 15.4 °C 1015.3 hPa ESE 5 km/h 9.7 km/h 79% 0.0 mm
19:14 19.1 °C 15.4 °C 1015.3 hPa ESE 5 km/h 9.3 km/h 79% 0.0 mm
19:19 19 °C 15.3 °C 1015.3 hPa ESE 5 km/h 9.7 km/h 79% 0.0 mm
19:24 19 °C 15.3 °C 1015.4 hPa ESE 5.6 km/h 9.7 km/h 79% 0.0 mm
19:29 18.9 °C 15.2 °C 1015.4 hPa SE 5.8 km/h 9.7 km/h 79% 0.0 mm
19:34 18.9 °C 15.2 °C 1015.4 hPa ESE 5.2 km/h 8.4 km/h 79% 0.0 mm
19:39 18.8 °C 15.2 °C 1015.4 hPa SE 5 km/h 8.4 km/h 79.5% 0.0 mm
19:44 18.8 °C 15.3 °C 1015.4 hPa Sur 4.1 km/h 8 km/h 80% 0.0 mm
19:49 18.8 °C 15.3 °C 1015.4 hPa OSO 3.9 km/h 8 km/h 80% 0.0 mm
19:54 18.7 °C 15.2 °C 1015.4 hPa Oeste 3.4 km/h 8 km/h 80% 0.0 mm
19:59 18.7 °C 15.3 °C 1015.4 hPa Oeste 3.2 km/h 4.8 km/h 80.7% 0.0 mm
20:04 18.6 °C 15.3 °C 1015.4 hPa Oeste 0.7 km/h   81% 0.0 mm
20:09 18.6 °C 15.3 °C 1015.4 hPa Calm   3.9 km/h 81.1% 0.0 mm
20:14 18.5 °C 15.4 °C 1015.4 hPa Calm   3.9 km/h 82% 0.0 mm
20:19 18.4 °C 15.3 °C 1015.4 hPa Calm   7.4 km/h 82% 0.0 mm
20:24 18.5 °C 15.4 °C 1015.5 hPa SSO 2.4 km/h 8 km/h 82% 0.0 mm
20:29 18.5 °C 15.4 °C 1015.5 hPa SO 3.2 km/h 8 km/h 82% 0.0 mm
20:34 18.5 °C 15.6 °C 1015.5 hPa SO 4.3 km/h 10 km/h 82.9% 0.0 mm
20:39 18.5 °C 15.6 °C 1015.5 hPa SSO 4.7 km/h 9.7 km/h 83% 0.0 mm
20:44 18.4 °C 15.5 °C 1015.5 hPa Sur 4.7 km/h 8 km/h 83% 0.0 mm
20:49 18.4 °C 15.4 °C 1015.5 hPa SSO 4.7 km/h 8.4 km/h 83% 0.0 mm
20:54 18.3 °C 15.6 °C 1015.5 hPa SSO 4.9 km/h 9.3 km/h 84% 0.0 mm
20:59 18.3 °C 15.5 °C 1015.4 hPa SSO 5 km/h 9.7 km/h 84% 0.0 mm
21:04 18.2 °C 15.4 °C 1015.4 hPa Sur 5 km/h 8 km/h 84% 0.0 mm
21:09 18.1 °C 15.3 °C 1015.5 hPa Sur 5 km/h 8 km/h 84% 0.0 mm
21:14 18.1 °C 15.3 °C 1015.5 hPa Sur 3 km/h 3.7 km/h 84.1% 0.0 mm
21:19 18 °C 15.4 °C 1015.5 hPa Sur 2.2 km/h 5.8 km/h 85% 0.0 mm
21:24 18 °C 15.4 °C 1015.6 hPa SSO 2.7 km/h 7.4 km/h 85% 0.0 mm
21:29 17.9 °C 15.4 °C 1015.6 hPa SSO 2.9 km/h 8 km/h 85% 0.0 mm
21:34 17.9 °C 15.5 °C 1015.6 hPa Sur 4.2 km/h 8 km/h 86% 0.0 mm
21:39 17.9 °C 15.5 °C 1015.7 hPa SSE 4.7 km/h 8.4 km/h 86% 0.0 mm
21:44 17.8 °C 15.5 °C 1015.7 hPa SE 4 km/h 8 km/h 86% 0.0 mm
21:49 17.8 °C 15.3 °C 1015.7 hPa SE 3.9 km/h 8 km/h 85.4% 0.0 mm
21:54 17.7 °C 15.3 °C 1015.9 hPa SSE 3.9 km/h 8 km/h 86% 0.0 mm
21:59 17.7 °C 15.3 °C 1015.9 hPa SSE 3.9 km/h 8 km/h 86% 0.0 mm
22:04 17.6 °C 15.4 °C 1015.9 hPa SSE 3.9 km/h 5.6 km/h 87% 0.0 mm
22:09 17.6 °C 15.3 °C 1015.9 hPa SSE 3.9 km/h 4.8 km/h 86.5% 0.0 mm
22:14 17.6 °C 15.2 °C 1015.8 hPa SSE 2.6 km/h 5.6 km/h 86% 0.0 mm
22:19 17.4 °C 15.1 °C 1015.8 hPa SSE 2.2 km/h 6.9 km/h 86% 0.0 mm
22:24 17.3 °C 15 °C 1015.9 hPa SSE 3 km/h 8 km/h 86.2% 0.0 mm
22:29 17.2 °C 15 °C 1015.9 hPa SSE 3.2 km/h 8 km/h 87% 0.0 mm
22:34 17.2 °C 15 °C 1015.9 hPa Sur 3.2 km/h 6.4 km/h 87.2% 0.0 mm
22:39 17.2 °C 15.2 °C 1015.9 hPa SO 3.2 km/h 9.5 km/h 88% 0.0 mm
22:44 17.2 °C 15.2 °C 1015.8 hPa OSO 4.3 km/h 10 km/h 88% 0.0 mm
22:49 17.2 °C 15.2 °C 1015.8 hPa SO 4.7 km/h 9.7 km/h 88% 0.0 mm
22:54 17.1 °C 15.1 °C 1015.8 hPa SO 5.5 km/h 9.7 km/h 88% 0.0 mm
22:59 17.1 °C 15.1 °C 1015.8 hPa SSO 5.8 km/h 8.4 km/h 88% 0.0 mm
23:04 17.1 °C 15.1 °C 1015.8 hPa Sur 5.2 km/h 8.7 km/h 88% 0.0 mm
23:09 17 °C 15 °C 1015.8 hPa Sur 5 km/h 9.7 km/h 88% 0.0 mm
23:14 16.9 °C 14.9 °C 1015.8 hPa Sur 5 km/h 8.4 km/h 88% 0.0 mm
23:19 16.8 °C 14.8 °C 1015.8 hPa Sur 5 km/h 8.4 km/h 88% 0.0 mm
23:24 16.8 °C 14.8 °C 1015.8 hPa SSE 5.6 km/h 8.4 km/h 88% 0.0 mm
23:29 16.7 °C 14.8 °C 1015.7 hPa Sur 5.8 km/h 8 km/h 88.7% 0.0 mm
23:34 16.6 °C 14.8 °C 1015.7 hPa SSE 5.2 km/h 8 km/h 89% 0.0 mm
23:39 16.6 °C 14.8 °C 1015.7 hPa Sur 5 km/h 7.6 km/h 89% 0.0 mm
23:44 16.6 °C 14.7 °C 1015.7 hPa SSE 4.7 km/h 8 km/h 89% 0.0 mm
23:49 16.5 °C 14.7 °C 1015.7 hPa SSE 4.7 km/h 8 km/h 89% 0.0 mm
23:54 16.5 °C 14.7 °C 1015.7 hPa Sur 4.7 km/h 8 km/h 89.5% 0.0 mm
23:59 16.5 °C 14.8 °C 1015.7 hPa SSE 4.7 km/h 8 km/h 90% 0.0 mm
Murcia-Puente Tocinos, España
Compliments of Weather Underground - 3 mb

La estación de MeteoMurcia.com, publica sus datos en los siguientes proyectos:

Weather Underground PWS IMURCIAP2 Meteoclimatic www.awekas.at

W3Counter
Web Analytics